createdAt,value
2019-04-22T00:01:36.479Z,8.50
2019-04-22T00:04:11.046Z,7.80
2019-04-22T00:06:59.804Z,7.83
2019-04-22T00:09:40.461Z,8.43
2019-04-22T00:12:06.378Z,8.18
2019-04-22T00:14:35.360Z,8.43
2019-04-22T00:17:16.909Z,9.10
2019-04-22T00:19:45.329Z,8.07
2019-04-22T00:22:18.226Z,7.97
2019-04-22T00:24:47.841Z,8.57
2019-04-22T00:32:19.517Z,7.47
2019-04-22T00:34:53.646Z,7.00
2019-04-22T00:37:26.739Z,7.06
2019-04-22T00:39:51.723Z,6.97
2019-04-22T00:42:29.578Z,7.33
2019-04-22T00:45:00.748Z,7.63
2019-04-22T00:50:15.897Z,8.53
2019-04-22T00:55:10.108Z,8.40
2019-04-22T00:57:32.396Z,8.53
2019-04-22T01:00:06.751Z,8.40
2019-04-22T01:02:41.882Z,8.07
2019-04-22T01:05:07.925Z,8.75
2019-04-22T01:07:35.569Z,8.50
2019-04-22T01:10:12.783Z,8.43
2019-04-22T01:12:43.990Z,8.63
2019-04-22T01:15:17.490Z,8.67
2019-04-22T01:17:45.049Z,8.87
2019-04-22T01:20:29.400Z,8.97
2019-04-22T01:22:46.659Z,9.10
2019-04-22T01:25:21.690Z,9.18
2019-04-22T01:27:44.660Z,8.53
2019-04-22T01:30:13.976Z,8.85
2019-04-22T01:32:38.477Z,9.18
2019-04-22T01:35:17.989Z,8.53
2019-04-22T01:37:54.183Z,8.30
2019-04-22T01:40:42.978Z,9.10
2019-04-22T01:43:08.691Z,9.08
2019-04-22T01:45:39.368Z,8.63
2019-04-22T01:48:16.160Z,6.53
2019-04-22T01:50:38.483Z,9.03
2019-04-22T01:53:11.231Z,8.47
2019-04-22T01:55:44.904Z,9.00
2019-04-22T01:58:10.759Z,8.77
2019-04-22T02:00:45.356Z,9.97
2019-04-22T02:03:17.243Z,10.70
2019-04-22T02:05:43.910Z,9.60
2019-04-22T02:08:25.078Z,11.08
2019-04-22T02:11:07.768Z,11.73
2019-04-22T02:13:23.461Z,11.15
2019-04-22T02:15:52.743Z,10.68
2019-04-22T02:18:35.802Z,9.37
2019-04-22T02:20:55.313Z,8.43
2019-04-22T02:23:47.125Z,8.10
2019-04-22T02:26:16.767Z,8.75
2019-04-22T02:28:39.858Z,9.05
2019-04-22T02:34:01.301Z,10.05
2019-04-22T02:44:00.829Z,9.53
2019-04-22T02:46:39.734Z,9.47
2019-04-22T02:49:01.315Z,8.50
2019-04-22T02:59:05.923Z,7.43
2019-04-22T03:01:29.880Z,7.53
2019-04-22T03:09:03.858Z,6.60
2019-04-22T03:14:01.436Z,7.17
2019-04-22T03:16:41.053Z,7.33
2019-04-22T03:19:25.554Z,7.50
2019-04-22T03:21:34.332Z,7.60
2019-04-22T03:24:15.817Z,7.77
2019-04-22T03:29:04.162Z,8.13
2019-04-22T03:42:05.558Z,6.77
2019-04-22T03:52:15.755Z,8.43
2019-04-22T03:54:39.923Z,15.13
2019-04-22T03:59:41.505Z,8.33
2019-04-22T04:02:16.111Z,8.10
2019-04-22T04:04:36.747Z,8.15
2019-04-22T04:09:43.767Z,8.05
2019-04-22T04:12:13.935Z,5.70
2019-04-22T04:14:55.648Z,7.73
2019-04-22T04:20:03.876Z,8.28
2019-04-22T04:22:30.263Z,7.83
2019-04-22T04:30:05.648Z,7.76
2019-04-22T04:32:38.707Z,8.00
2019-04-22T04:35:19.827Z,7.30
2019-04-22T04:37:40.524Z,7.67
2019-04-22T04:40:07.912Z,7.03
2019-04-22T04:47:47.763Z,8.00
2019-04-22T04:50:06.990Z,8.48
2019-04-22T04:55:14.406Z,8.77
2019-04-22T05:00:35.102Z,8.40
2019-04-22T05:05:14.503Z,9.40
2019-04-22T05:07:40.878Z,8.85
2019-04-22T05:10:39.105Z,9.07
2019-04-22T05:15:21.078Z,9.80
2019-04-22T05:17:47.143Z,9.90
2019-04-22T05:25:15.313Z,9.58
2019-04-22T05:30:25.305Z,10.27
2019-04-22T05:32:43.278Z,10.72
2019-04-22T05:35:17.199Z,10.27
2019-04-22T05:37:49.990Z,10.43
2019-04-22T05:40:21.371Z,10.40
2019-04-22T05:42:53.094Z,10.88
2019-04-22T05:45:23.109Z,7.87
2019-04-22T05:47:52.390Z,10.05
2019-04-22T05:50:20.358Z,10.70
2019-04-22T05:52:54.144Z,10.70
2019-04-22T05:55:30.533Z,9.70
2019-04-22T05:57:57.633Z,9.87
2019-04-22T06:01:01.925Z,10.20
2019-04-22T06:05:34.370Z,9.97
2019-04-22T06:08:07.660Z,9.20
2019-04-22T06:13:06.499Z,9.83
2019-04-22T06:15:37.633Z,9.75
2019-04-22T06:18:22.789Z,9.77
2019-04-22T06:21:00.555Z,8.90
2019-04-22T06:23:30.710Z,10.00
2019-04-22T06:26:07.839Z,9.70
2019-04-22T06:33:27.246Z,9.40
2019-04-22T06:36:03.631Z,9.30
2019-04-22T06:41:09.097Z,9.60
2019-04-22T06:43:35.423Z,9.48
2019-04-22T06:46:08.333Z,9.63
2019-04-22T06:48:36.187Z,9.85
2019-04-22T06:51:06.458Z,8.93
2019-04-22T06:56:10.961Z,9.26
2019-04-22T06:58:39.477Z,9.47
2019-04-22T07:01:17.869Z,8.37
2019-04-22T07:03:50.561Z,8.55
2019-04-22T07:06:20.088Z,7.73
2019-04-22T07:11:11.397Z,8.43
2019-04-22T07:13:49.831Z,7.70
2019-04-22T07:18:49.387Z,7.40
2019-04-22T07:21:21.001Z,8.30
2019-04-22T07:24:02.742Z,7.73
2019-04-22T07:26:24.980Z,7.10
2019-04-22T07:29:02.751Z,7.47
2019-04-22T07:31:49.597Z,6.87
2019-04-22T07:34:08.112Z,6.17
2019-04-22T07:39:05.608Z,6.75
2019-04-22T07:41:37.781Z,6.42
2019-04-22T07:44:25.093Z,6.40
2019-04-22T07:46:41.758Z,6.64
2019-04-22T07:49:10.534Z,7.13
2019-04-22T07:51:44.484Z,6.60
2019-04-22T07:54:16.735Z,6.90
2019-04-22T07:56:43.656Z,6.75
2019-04-22T07:59:15.246Z,6.70
2019-04-22T08:01:42.306Z,5.73
2019-04-22T08:04:23.107Z,6.17
2019-04-22T08:06:51.632Z,6.13
2019-04-22T08:14:24.746Z,6.05
2019-04-22T08:17:01.470Z,6.40
2019-04-22T08:21:57.039Z,6.13
2019-04-22T08:24:28.812Z,7.27
2019-04-22T08:26:59.356Z,5.53
2019-04-22T08:32:01.388Z,5.87
2019-04-22T08:34:32.081Z,5.43
2019-04-22T08:37:37.060Z,5.80
2019-04-22T08:39:35.812Z,5.97
2019-04-22T08:42:16.411Z,6.35
2019-04-22T08:44:58.301Z,5.97
2019-04-22T08:47:19.161Z,5.42
2019-04-22T08:49:50.850Z,5.47
2019-04-22T08:52:17.572Z,5.67
2019-04-22T08:54:44.653Z,6.03
2019-04-22T08:57:18.328Z,5.63
2019-04-22T08:59:48.746Z,5.58
2019-04-22T09:02:19.829Z,6.87
2019-04-22T09:04:48.080Z,5.50
2019-04-22T09:07:28.356Z,6.27
2019-04-22T09:09:53.303Z,5.37
2019-04-22T09:12:23.985Z,5.87
2019-04-22T09:15:06.345Z,5.93
2019-04-22T09:17:37.905Z,5.93
2019-04-22T09:20:00.312Z,5.13
2019-04-22T09:22:26.294Z,5.33
2019-04-22T09:24:57.315Z,5.07
2019-04-22T09:27:37.012Z,5.57
2019-04-22T09:30:01.032Z,4.43
2019-04-22T09:32:34.714Z,4.73
2019-04-22T09:35:03.300Z,5.17
2019-04-22T09:42:39.565Z,5.47
2019-04-22T09:45:06.174Z,4.85
2019-04-22T09:47:43.608Z,4.70
2019-04-22T09:50:12.626Z,4.20
2019-04-22T09:52:43.678Z,4.50
2019-04-22T09:55:15.388Z,4.47
2019-04-22T09:57:50.966Z,4.70
2019-04-22T10:00:13.928Z,4.20
2019-04-22T10:02:49.060Z,4.70
2019-04-22T10:05:20.928Z,4.15
2019-04-22T10:07:48.343Z,4.30
2019-04-22T10:10:36.572Z,4.50
2019-04-22T10:12:46.663Z,4.40
2019-04-22T10:15:23.280Z,4.40
2019-04-22T10:18:09.774Z,4.10
2019-04-22T10:20:27.019Z,4.53
2019-04-22T10:23:04.069Z,4.67
2019-04-22T10:25:26.436Z,4.13
2019-04-22T10:28:01.845Z,4.17
2019-04-22T10:30:39.160Z,4.60
2019-04-22T10:35:14.692Z,3.98
2019-04-22T10:37:40.597Z,3.83
2019-04-22T10:40:15.679Z,3.83
2019-04-22T10:42:45.398Z,3.55
2019-04-22T10:45:16.486Z,3.77
2019-04-22T10:47:48.024Z,3.83
2019-04-22T10:50:18.718Z,3.73
2019-04-22T10:52:49.627Z,3.70
2019-04-22T10:55:19.300Z,3.40
2019-04-22T10:57:48.873Z,3.35
2019-04-22T11:00:19.771Z,3.93
2019-04-22T11:05:19.960Z,3.62
2019-04-22T11:07:56.834Z,3.70
2019-04-22T11:10:36.894Z,4.07
2019-04-22T11:15:20.691Z,3.60
2019-04-22T11:17:51.360Z,3.87
2019-04-22T11:20:23.763Z,3.73
2019-04-22T11:22:53.278Z,3.67
2019-04-22T11:25:23.643Z,3.85
2019-04-22T11:27:53.682Z,3.92
2019-04-22T11:30:25.944Z,3.50
2019-04-22T11:32:55.944Z,4.10
2019-04-22T11:35:25.875Z,3.63
2019-04-22T11:37:55.222Z,3.73
2019-04-22T11:40:32.632Z,3.90
2019-04-22T11:45:27.083Z,3.62
2019-04-22T11:47:57.652Z,3.37
2019-04-22T11:50:28.096Z,3.72
2019-04-22T11:52:58.594Z,3.70
2019-04-22T11:55:29.025Z,2.85
2019-04-22T11:57:58.997Z,3.35
2019-04-22T12:00:35.149Z,3.75
2019-04-22T12:03:05.242Z,3.55
2019-04-22T12:05:34.751Z,3.47
2019-04-22T12:08:04.960Z,3.75
2019-04-22T12:10:41.179Z,3.20
2019-04-22T12:13:06.223Z,3.50
2019-04-22T12:15:37.323Z,3.22
2019-04-22T12:18:09.207Z,3.67
2019-04-22T12:20:41.299Z,3.65
2019-04-22T12:23:11.129Z,4.17
2019-04-22T12:25:51.554Z,3.33
2019-04-22T12:28:15.086Z,3.60
2019-04-22T12:30:45.787Z,3.47
2019-04-22T12:33:15.141Z,3.66
2019-04-22T12:35:44.583Z,3.20
2019-04-22T12:38:15.128Z,3.37
2019-04-22T12:40:53.153Z,3.42
2019-04-22T12:43:20.231Z,3.70
2019-04-22T12:45:49.953Z,3.20
2019-04-22T12:48:19.495Z,3.70
2019-04-22T12:50:51.899Z,3.90
2019-04-22T12:53:23.510Z,3.57
2019-04-22T12:55:53.753Z,3.50
2019-04-22T12:58:23.570Z,3.30
2019-04-22T13:00:54.466Z,3.57
2019-04-22T13:03:26.401Z,3.50
2019-04-22T13:05:57.418Z,3.57
2019-04-22T13:08:27.632Z,3.60
2019-04-22T13:11:02.950Z,3.25
2019-04-22T13:13:29.051Z,3.33
2019-04-22T13:15:59.371Z,3.67
2019-04-22T13:18:37.447Z,3.42
2019-04-22T13:21:00.409Z,3.60
2019-04-22T13:23:31.790Z,3.33
2019-04-22T13:26:01.220Z,3.50
2019-04-22T13:28:31.466Z,3.67
2019-04-22T13:31:02.031Z,3.53
2019-04-22T13:33:32.905Z,3.40
2019-04-22T13:36:03.744Z,3.70
2019-04-22T13:38:33.264Z,3.80
2019-04-22T13:41:16.405Z,3.33
2019-04-22T13:43:34.748Z,3.40
2019-04-22T13:46:05.611Z,3.33
2019-04-22T13:49:02.051Z,3.50
2019-04-22T13:51:36.313Z,3.20
2019-04-22T13:56:35.612Z,3.13
2019-04-22T13:58:53.993Z,3.20
2019-04-22T14:01:14.502Z,3.13
2019-04-22T14:03:56.496Z,3.40
2019-04-22T14:06:26.946Z,3.25
2019-04-22T14:08:56.343Z,2.95
2019-04-22T14:11:35.084Z,4.08
2019-04-22T14:13:57.007Z,3.20
2019-04-22T14:16:27.029Z,3.42
2019-04-22T14:21:27.575Z,3.37
2019-04-22T14:23:58.405Z,3.30
2019-04-22T14:26:41.312Z,3.43
2019-04-22T14:29:00.091Z,3.67
2019-04-22T14:31:30.772Z,3.62
2019-04-22T14:34:05.010Z,3.30
2019-04-22T14:36:32.964Z,3.30
2019-04-22T14:39:03.870Z,3.07
2019-04-22T14:41:48.975Z,2.90
2019-04-22T14:47:04.907Z,3.72
2019-04-22T14:49:31.851Z,3.40
2019-04-22T14:52:03.597Z,3.77
2019-04-22T14:54:24.184Z,3.30
2019-04-22T14:56:42.215Z,3.35
2019-04-22T14:59:13.383Z,3.40
2019-04-22T15:01:43.528Z,3.25
2019-04-22T15:04:15.203Z,3.63
2019-04-22T15:06:47.070Z,3.72
2019-04-22T15:09:16.227Z,3.40
2019-04-22T15:11:55.756Z,3.10
2019-04-22T15:14:17.267Z,3.27
2019-04-22T15:16:48.829Z,3.20
2019-04-22T15:19:22.462Z,3.67
2019-04-22T15:21:52.544Z,3.20
2019-04-22T15:24:25.128Z,3.00
2019-04-22T15:26:58.331Z,3.27
2019-04-22T15:29:29.389Z,5.65
2019-04-22T15:31:59.921Z,3.50
2019-04-22T15:34:30.640Z,3.90
2019-04-22T15:37:00.242Z,4.03
2019-04-22T15:39:29.632Z,3.50
2019-04-22T15:42:09.747Z,4.05
2019-04-22T15:44:30.551Z,3.15
2019-04-22T15:47:00.932Z,3.33
2019-04-22T15:49:31.881Z,2.93
2019-04-22T15:52:03.905Z,3.77
2019-04-22T15:54:33.875Z,3.20
2019-04-22T15:57:04.718Z,3.80
2019-04-22T15:59:52.637Z,4.60
2019-04-22T16:02:06.639Z,3.20
2019-04-22T16:04:36.901Z,3.70
2019-04-22T16:07:07.403Z,4.25
2019-04-22T16:09:37.407Z,3.47
2019-04-22T16:12:16.179Z,2.80
2019-04-22T16:14:43.509Z,3.20
2019-04-22T16:17:10.482Z,5.07
2019-04-22T16:19:41.204Z,3.77
2019-04-22T16:22:16.915Z,3.75
2019-04-22T16:25:02.033Z,3.77
2019-04-22T16:27:32.153Z,3.10
2019-04-22T16:30:01.713Z,2.87
2019-04-22T16:32:33.733Z,3.40
2019-04-22T16:35:04.382Z,3.13
2019-04-22T16:37:34.725Z,3.37
2019-04-22T16:40:07.229Z,3.75
2019-04-22T16:42:43.862Z,3.80
2019-04-22T16:45:09.480Z,3.43
2019-04-22T16:47:39.662Z,2.95
2019-04-22T16:50:09.965Z,3.10
2019-04-22T16:52:39.847Z,3.42
2019-04-22T16:55:10.679Z,2.92
2019-04-22T16:57:41.976Z,3.33
2019-04-22T17:00:13.102Z,3.50
2019-04-22T17:02:46.507Z,2.77
2019-04-22T17:05:25.836Z,3.65
2019-04-22T17:07:56.352Z,3.20
2019-04-22T17:10:26.184Z,3.22
2019-04-22T17:13:02.365Z,3.20
2019-04-22T17:15:27.138Z,3.10
2019-04-22T17:17:57.212Z,3.17
2019-04-22T17:20:27.146Z,2.83
2019-04-22T17:22:57.779Z,3.20
2019-04-22T17:25:28.187Z,3.20
2019-04-22T17:27:57.562Z,3.58
2019-04-22T17:30:27.089Z,3.17
2019-04-22T17:32:58.734Z,3.60
2019-04-22T17:35:28.400Z,3.27
2019-04-22T17:38:08.780Z,3.30
2019-04-22T17:40:45.252Z,3.23
2019-04-22T17:43:29.872Z,3.00
2019-04-22T17:46:12.035Z,3.20
2019-04-22T17:48:55.891Z,3.75
2019-04-22T17:51:33.194Z,4.10
2019-04-22T17:53:57.771Z,3.97
2019-04-22T17:56:30.784Z,4.10
2019-04-22T17:59:15.861Z,4.90
2019-04-22T18:01:29.911Z,4.08
2019-04-22T18:03:49.722Z,4.50
2019-04-22T18:06:38.892Z,4.20
2019-04-22T18:09:05.001Z,4.47
2019-04-22T18:11:47.158Z,4.73
2019-04-22T18:16:43.424Z,4.45
2019-04-22T18:19:11.146Z,4.35
2019-04-22T18:21:36.196Z,4.70
2019-04-22T18:24:04.220Z,4.17
2019-04-22T18:26:44.977Z,5.07
2019-04-22T18:29:16.160Z,4.70
2019-04-22T18:31:35.350Z,4.92
2019-04-22T18:34:10.011Z,4.65
2019-04-22T18:36:42.828Z,4.63
2019-04-22T18:39:25.290Z,4.50
2019-04-22T18:41:54.432Z,4.67
2019-04-22T18:44:27.120Z,4.60
2019-04-22T18:46:52.440Z,4.60
2019-04-22T18:49:26.873Z,5.03
2019-04-22T18:51:57.291Z,4.40
2019-04-22T18:54:49.817Z,4.60
2019-04-22T18:57:15.695Z,5.10
2019-04-22T18:59:37.935Z,4.72
2019-04-22T19:02:11.792Z,4.90
2019-04-22T19:04:47.308Z,5.47
2019-04-22T19:07:35.122Z,4.80
2019-04-22T19:10:03.324Z,5.20
2019-04-22T19:12:33.863Z,5.35
2019-04-22T19:15:03.943Z,5.03
2019-04-22T19:17:41.293Z,5.15
2019-04-22T19:20:09.320Z,5.15
2019-04-22T19:22:45.801Z,4.78
2019-04-22T19:25:00.988Z,5.70
2019-04-22T19:27:35.624Z,5.30
2019-04-22T19:30:12.271Z,5.03
2019-04-22T19:32:46.287Z,4.98
2019-04-22T19:35:09.387Z,4.97
2019-04-22T19:37:37.842Z,5.40
2019-04-22T19:40:17.588Z,5.33
2019-04-22T19:42:53.498Z,4.83
2019-04-22T19:45:17.529Z,5.60
2019-04-22T19:47:51.617Z,5.10
2019-04-22T19:50:22.750Z,5.67
2019-04-22T19:52:55.851Z,6.03
2019-04-22T19:55:26.593Z,5.07
2019-04-22T19:57:51.010Z,5.05
2019-04-22T20:00:34.010Z,4.70
2019-04-22T20:03:16.139Z,5.65
2019-04-22T20:05:43.619Z,5.15
2019-04-22T20:08:14.508Z,5.50
2019-04-22T20:10:44.647Z,4.77
2019-04-22T20:13:22.440Z,5.00
2019-04-22T20:15:37.100Z,5.30
2019-04-22T20:18:31.693Z,4.93
2019-04-22T20:20:56.131Z,5.50
2019-04-22T20:23:14.501Z,5.20
2019-04-22T20:25:44.900Z,5.60
2019-04-22T20:28:25.597Z,5.27
2019-04-22T20:30:55.090Z,5.00
2019-04-22T20:33:29.152Z,5.30
2019-04-22T20:35:58.201Z,5.00
2019-04-22T20:38:28.017Z,5.00
2019-04-22T20:40:58.218Z,5.00
2019-04-22T20:43:41.601Z,5.20
2019-04-22T20:46:05.990Z,4.93
2019-04-22T20:48:37.957Z,5.20
2019-04-22T20:51:04.183Z,5.00
2019-04-22T20:53:36.394Z,5.15
2019-04-22T20:56:08.959Z,4.95
2019-04-22T20:58:40.298Z,5.16
2019-04-22T21:00:59.573Z,5.50
2019-04-22T21:03:29.385Z,5.03
2019-04-22T21:06:07.159Z,5.37
2019-04-22T21:08:42.066Z,5.20
2019-04-22T21:11:12.666Z,5.12
2019-04-22T21:13:41.035Z,5.43
2019-04-22T21:16:21.690Z,5.63
2019-04-22T21:18:44.194Z,5.10
2019-04-22T21:21:20.398Z,5.33
2019-04-22T21:23:47.663Z,5.35
2019-04-22T21:26:19.444Z,5.95
2019-04-22T21:28:54.045Z,5.40
2019-04-22T21:31:29.611Z,5.67
2019-04-22T21:34:03.946Z,6.23
2019-04-22T21:36:30.223Z,4.87
2019-04-22T21:39:02.575Z,5.20
2019-04-22T21:41:24.885Z,5.70
2019-04-22T21:46:33.881Z,5.17
2019-04-22T21:49:06.469Z,5.33
2019-04-22T21:51:39.402Z,5.40
2019-04-22T21:54:12.287Z,6.00
2019-04-22T21:57:05.816Z,5.57
2019-04-22T21:59:19.239Z,5.73
2019-04-22T22:02:04.514Z,5.80
2019-04-22T22:04:28.986Z,5.78
2019-04-22T22:06:54.581Z,5.50
2019-04-22T22:09:37.950Z,5.47
2019-04-22T22:12:03.731Z,5.40
2019-04-22T22:14:39.813Z,5.57
2019-04-22T22:17:01.600Z,5.50
2019-04-22T22:19:38.212Z,5.40
2019-04-22T22:22:30.232Z,5.47
2019-04-22T22:24:43.616Z,5.40
2019-04-22T22:27:20.462Z,5.90
2019-04-22T22:29:57.137Z,5.00
2019-04-22T22:32:26.000Z,5.40
2019-04-22T22:34:54.512Z,5.20
2019-04-22T22:37:14.333Z,5.62
2019-04-22T22:39:42.971Z,5.20
2019-04-22T22:42:05.916Z,5.57
2019-04-22T22:44:40.386Z,5.90
2019-04-22T22:47:25.848Z,5.83
2019-04-22T22:49:56.553Z,5.75
2019-04-22T22:52:53.660Z,6.10
2019-04-22T22:55:04.183Z,5.50
2019-04-22T22:57:44.292Z,5.33
2019-04-22T23:02:36.934Z,5.83
2019-04-22T23:05:09.632Z,6.00
2019-04-22T23:07:42.802Z,5.63
2019-04-22T23:10:12.163Z,5.20
2019-04-22T23:13:05.299Z,5.83
2019-04-22T23:15:12.041Z,5.67
2019-04-22T23:17:26.707Z,6.13
2019-04-22T23:19:56.615Z,5.30
2019-04-22T23:22:32.463Z,5.73
2019-04-22T23:25:24.327Z,5.63
2019-04-22T23:27:55.315Z,5.43
2019-04-22T23:30:21.562Z,6.03
2019-04-22T23:33:04.160Z,6.35
2019-04-22T23:35:42.408Z,5.50
2019-04-22T23:38:15.370Z,6.13
2019-04-22T23:40:47.898Z,5.77
2019-04-22T23:43:30.590Z,5.37
2019-04-22T23:45:56.428Z,5.47
2019-04-22T23:48:22.500Z,5.28
2019-04-22T23:51:06.059Z,5.58
2019-04-22T23:54:04.362Z,5.05
2019-04-22T23:56:07.935Z,5.75
